createdAt,value
2017-11-16T00:00:29.437Z,101883.40
2017-11-16T00:02:56.994Z,101890.08
2017-11-16T00:05:24.520Z,101884.66
2017-11-16T00:07:52.111Z,101882.13
2017-11-16T00:10:19.644Z,101884.95
2017-11-16T00:12:47.183Z,101878.63
2017-11-16T00:15:15.149Z,101868.77
2017-11-16T00:17:42.674Z,101865.01
2017-11-16T00:20:10.203Z,101872.42
2017-11-16T00:22:38.163Z,101872.25
2017-11-16T00:25:05.707Z,101862.07
2017-11-16T00:27:33.225Z,101857.22
2017-11-16T00:30:00.814Z,101861.04
2017-11-16T00:32:28.332Z,101858.94
2017-11-16T00:34:55.854Z,101859.51
2017-11-16T00:37:23.903Z,101854.89
2017-11-16T00:39:51.412Z,101857.45
2017-11-16T00:42:18.943Z,101860.17
2017-11-16T00:44:46.608Z,101852.77
2017-11-16T00:47:14.143Z,101855.11
2017-11-16T00:49:41.671Z,101853.48
2017-11-16T00:52:09.226Z,101854.93
2017-11-16T00:54:36.759Z,101851.36
2017-11-16T00:57:04.489Z,101860.62
2017-11-16T00:59:32.046Z,101859.70
2017-11-16T01:01:59.580Z,101856.94
2017-11-16T01:04:27.247Z,101850.70
2017-11-16T01:06:54.769Z,101855.86
2017-11-16T01:09:22.291Z,101852.55
2017-11-16T01:11:50.033Z,101846.89
2017-11-16T01:14:17.577Z,101845.55
2017-11-16T01:16:45.115Z,101850.02
2017-11-16T01:19:13.035Z,101847.88
2017-11-16T01:21:40.576Z,101841.75
2017-11-16T01:24:08.115Z,101835.89
2017-11-16T01:26:35.702Z,101835.78
2017-11-16T01:29:03.233Z,101838.34
2017-11-16T01:31:30.767Z,101841.59
2017-11-16T01:33:58.802Z,101844.58
2017-11-16T01:36:26.334Z,101838.87
2017-11-16T01:38:53.888Z,101832.97
2017-11-16T01:41:21.456Z,101818.08
2017-11-16T01:43:49.010Z,101815.28
2017-11-16T01:46:16.567Z,101816.77
2017-11-16T01:48:44.094Z,101817.34
2017-11-16T01:51:11.675Z,101817.33
2017-11-16T01:53:39.235Z,101811.87
2017-11-16T01:56:06.790Z,101809.69
2017-11-16T01:58:34.399Z,101814.66
2017-11-16T02:01:01.959Z,101810.65
2017-11-16T02:03:29.509Z,101811.44
2017-11-16T02:05:57.326Z,101810.22
2017-11-16T02:08:24.867Z,101808.75
2017-11-16T02:10:52.426Z,101813.79
2017-11-16T02:13:20.034Z,101819.30
2017-11-16T02:15:47.575Z,101814.98
2017-11-16T02:18:15.119Z,101803.63
2017-11-16T02:20:42.885Z,101808.56
2017-11-16T02:23:10.440Z,101801.55
2017-11-16T02:25:38.006Z,101802.87
2017-11-16T02:28:05.620Z,101806.03
2017-11-16T02:30:33.186Z,101799.25
2017-11-16T02:33:00.740Z,101798.51
2017-11-16T02:35:28.739Z,101801.81
2017-11-16T02:37:56.311Z,101794.09
2017-11-16T02:40:23.888Z,101796.96
2017-11-16T02:42:51.496Z,101791.61
2017-11-16T02:45:19.052Z,101786.03
2017-11-16T02:47:46.616Z,101787.67
2017-11-16T02:50:14.394Z,101784.70
2017-11-16T02:52:41.948Z,101775.67
2017-11-16T02:55:09.515Z,101782.09
2017-11-16T02:57:37.147Z,101775.83
2017-11-16T03:00:04.691Z,101778.97
2017-11-16T03:02:32.266Z,101780.64
2017-11-16T03:04:59.837Z,101771.87
2017-11-16T03:07:27.380Z,101770.94
2017-11-16T03:09:55.163Z,101769.40
2017-11-16T03:12:22.712Z,101770.77
2017-11-16T03:14:50.266Z,101770.85
2017-11-16T03:17:17.839Z,101767.50
2017-11-16T03:19:45.384Z,101765.30
2017-11-16T03:22:12.987Z,101762.82
2017-11-16T03:24:40.551Z,101758.77
2017-11-16T03:27:08.120Z,101757.66
2017-11-16T03:29:35.853Z,101759.82
2017-11-16T03:32:03.406Z,101758.28
2017-11-16T03:34:30.925Z,101759.78
2017-11-16T03:36:58.536Z,101766.48
2017-11-16T03:39:26.063Z,101761.95
2017-11-16T03:41:53.625Z,101751.97
2017-11-16T03:44:21.309Z,101755.58
2017-11-16T03:46:48.841Z,101756.29
2017-11-16T03:49:16.378Z,101746.89
2017-11-16T03:51:44.322Z,101747.83
2017-11-16T03:54:11.851Z,101759.78
2017-11-16T03:56:39.400Z,101754.67
2017-11-16T03:59:07.151Z,101758.41
2017-11-16T04:01:34.692Z,101760.84
2017-11-16T04:04:02.237Z,101766.13
2017-11-16T04:06:29.962Z,101760.19
2017-11-16T04:08:57.495Z,101754.14
2017-11-16T04:11:25.046Z,101753.43
2017-11-16T04:13:52.606Z,101752.20
2017-11-16T04:16:20.140Z,101743.86
2017-11-16T04:18:47.834Z,101742.02
2017-11-16T04:21:15.431Z,101742.14
2017-11-16T04:23:42.987Z,101737.28
2017-11-16T04:26:10.750Z,101734.33
2017-11-16T04:28:38.269Z,101730.23
2017-11-16T04:31:05.817Z,101725.52
2017-11-16T04:33:33.576Z,101723.48
2017-11-16T04:36:01.098Z,101730.22
2017-11-16T04:38:28.637Z,101723.17
2017-11-16T04:40:56.693Z,101721.50
2017-11-16T04:43:24.228Z,101719.38
2017-11-16T04:45:51.766Z,101725.69
2017-11-16T04:48:19.368Z,101713.12
2017-11-16T04:50:46.904Z,101714.48
2017-11-16T04:53:14.444Z,101718.98
2017-11-16T04:55:42.021Z,101712.91
2017-11-16T04:58:09.545Z,101710.30
2017-11-16T05:00:37.077Z,101703.41
2017-11-16T05:03:04.700Z,101709.10
2017-11-16T05:05:32.243Z,101704.03
2017-11-16T05:08:00.077Z,101710.52
2017-11-16T05:10:27.671Z,101707.57
2017-11-16T05:12:55.244Z,101707.97
2017-11-16T05:15:22.766Z,101703.72
2017-11-16T05:17:50.292Z,101699.62
2017-11-16T05:20:17.971Z,101700.94
2017-11-16T05:22:45.517Z,101694.91
2017-11-16T05:25:13.067Z,101696.28
2017-11-16T05:27:40.639Z,101702.80
2017-11-16T05:30:08.206Z,101695.78
2017-11-16T05:32:35.721Z,101699.14
2017-11-16T05:35:03.497Z,101697.64
2017-11-16T05:37:31.038Z,101697.38
2017-11-16T05:39:58.561Z,101694.16
2017-11-16T05:42:26.666Z,101694.72
2017-11-16T05:44:54.189Z,101706.59
2017-11-16T05:47:21.704Z,101704.61
2017-11-16T05:49:49.256Z,101707.26
2017-11-16T05:52:16.862Z,101709.86
2017-11-16T05:54:44.432Z,101711.23
2017-11-16T05:57:11.948Z,101701.00
2017-11-16T05:59:39.746Z,101699.04
2017-11-16T06:02:07.290Z,101701.06
2017-11-16T06:04:34.836Z,101691.91
2017-11-16T06:07:02.428Z,101694.86
2017-11-16T06:09:29.962Z,101697.16
2017-11-16T06:11:57.481Z,101698.91
2017-11-16T06:14:25.079Z,101705.88
2017-11-16T06:16:52.613Z,101693.04
2017-11-16T06:19:20.166Z,101694.11
2017-11-16T06:21:47.717Z,101695.39
2017-11-16T06:24:15.494Z,101699.36
2017-11-16T06:26:43.024Z,101699.36
2017-11-16T06:29:10.572Z,101702.84
2017-11-16T06:31:38.237Z,101706.23
2017-11-16T06:34:05.763Z,101713.73
2017-11-16T06:36:33.285Z,101704.66
2017-11-16T06:39:00.830Z,101708.92
2017-11-16T06:41:28.357Z,101705.22
2017-11-16T06:43:55.934Z,101712.13
2017-11-16T06:46:23.585Z,101705.58
2017-11-16T06:48:51.106Z,101708.93
2017-11-16T06:51:18.762Z,101712.14
2017-11-16T06:53:46.287Z,101722.64
2017-11-16T06:56:13.802Z,101712.34
2017-11-16T06:58:41.341Z,101719.03
2017-11-16T07:01:08.894Z,101729.22
2017-11-16T07:03:36.418Z,101726.40
2017-11-16T07:06:03.942Z,101729.97
2017-11-16T07:08:31.514Z,101733.45
2017-11-16T07:10:59.033Z,101729.13
2017-11-16T07:13:26.554Z,101727.19
2017-11-16T07:15:54.098Z,101722.52
2017-11-16T07:18:21.613Z,101721.02
2017-11-16T07:20:49.156Z,101726.09
2017-11-16T07:23:16.690Z,101726.66
2017-11-16T07:25:44.234Z,101731.69
2017-11-16T07:28:11.746Z,101736.23
2017-11-16T07:30:39.742Z,101735.22
2017-11-16T07:33:07.290Z,101743.45
2017-11-16T07:35:34.809Z,101753.47
2017-11-16T07:38:02.354Z,101753.34
2017-11-16T07:40:29.980Z,101756.48
2017-11-16T07:42:57.505Z,101757.89
2017-11-16T07:45:25.039Z,101756.00
2017-11-16T07:47:52.842Z,101752.63
2017-11-16T07:50:20.411Z,101756.34
2017-11-16T07:52:47.961Z,101754.93
2017-11-16T07:55:15.530Z,101756.34
2017-11-16T07:57:43.072Z,101750.73
2017-11-16T08:00:10.590Z,101748.14
2017-11-16T08:02:38.256Z,101748.39
2017-11-16T08:05:05.794Z,101747.88
2017-11-16T08:07:33.317Z,101737.38
2017-11-16T08:10:00.863Z,101738.08
2017-11-16T08:12:28.387Z,101738.00
2017-11-16T08:14:55.994Z,101731.08
2017-11-16T08:17:23.514Z,101739.19
2017-11-16T08:19:51.050Z,101745.22
2017-11-16T08:22:18.598Z,101752.67
2017-11-16T08:24:46.257Z,101762.73
2017-11-16T08:27:13.780Z,101758.72
2017-11-16T08:29:41.301Z,101760.35
2017-11-16T08:32:08.878Z,101755.41
2017-11-16T08:34:36.397Z,101762.82
2017-11-16T08:37:03.939Z,101759.96
2017-11-16T08:39:31.500Z,101762.13
2017-11-16T08:41:59.086Z,101764.02
2017-11-16T08:44:26.633Z,101769.61
2017-11-16T08:46:54.168Z,101765.10
2017-11-16T08:49:21.974Z,101762.07
2017-11-16T08:51:49.546Z,101756.03
2017-11-16T08:54:17.108Z,101742.53
2017-11-16T08:56:45.015Z,101747.15
2017-11-16T08:59:12.557Z,101750.50
2017-11-16T09:01:40.130Z,101753.31
2017-11-16T09:04:07.697Z,101752.27
2017-11-16T09:06:35.238Z,101750.60
2017-11-16T09:09:02.861Z,101751.89
2017-11-16T09:11:30.392Z,101751.70
2017-11-16T09:13:58.708Z,101754.22
2017-11-16T09:16:27.032Z,101753.94
2017-11-16T09:18:54.588Z,101751.59
2017-11-16T09:21:22.149Z,101744.54
2017-11-16T09:23:49.730Z,101752.33
2017-11-16T09:26:17.278Z,101751.48
2017-11-16T09:28:44.838Z,101741.53
2017-11-16T09:31:12.575Z,101749.14
2017-11-16T09:33:40.131Z,101739.84
2017-11-16T09:36:07.682Z,101740.73
2017-11-16T09:38:35.389Z,101743.11
2017-11-16T09:41:02.928Z,101737.56
2017-11-16T09:43:30.454Z,101741.63
2017-11-16T09:45:58.355Z,101741.72
2017-11-16T09:48:25.906Z,101738.44
2017-11-16T09:50:53.453Z,101736.78
2017-11-16T09:53:21.138Z,101728.64
2017-11-16T09:55:48.657Z,101733.54
2017-11-16T09:58:16.181Z,101728.66
2017-11-16T10:00:43.774Z,101725.36
2017-11-16T10:03:11.320Z,101732.48
2017-11-16T10:05:38.899Z,101724.27
2017-11-16T10:08:06.422Z,101723.71
2017-11-16T10:10:33.994Z,101721.45
2017-11-16T10:13:01.585Z,101728.86
2017-11-16T10:15:29.124Z,101723.01
2017-11-16T10:17:56.658Z,101724.95
2017-11-16T10:20:24.334Z,101726.30
2017-11-16T10:22:51.863Z,101720.97
2017-11-16T10:25:19.478Z,101724.69
2017-11-16T10:27:47.142Z,101729.09
2017-11-16T10:30:14.743Z,101728.86
2017-11-16T10:32:42.262Z,101728.06
2017-11-16T10:35:09.865Z,101723.28
2017-11-16T10:37:37.396Z,101722.84
2017-11-16T10:40:04.938Z,101712.50
2017-11-16T10:42:32.546Z,101720.84
2017-11-16T10:45:00.065Z,101713.11
2017-11-16T10:47:27.603Z,101713.48
2017-11-16T10:49:55.164Z,101706.55
2017-11-16T10:52:23.202Z,101704.73
2017-11-16T10:54:50.722Z,101697.23
2017-11-16T10:57:18.254Z,101700.31
2017-11-16T10:59:45.909Z,101695.83
2017-11-16T11:02:13.450Z,101702.22
2017-11-16T11:04:40.978Z,101698.64
2017-11-16T11:07:08.519Z,101698.80
2017-11-16T11:09:36.465Z,101697.34
2017-11-16T11:12:04.003Z,101697.59
2017-11-16T11:14:31.534Z,101693.09
2017-11-16T11:16:59.393Z,101695.14
2017-11-16T11:19:26.916Z,101700.02
2017-11-16T11:21:54.443Z,101697.51
2017-11-16T11:24:22.003Z,101699.84
2017-11-16T11:26:49.666Z,101692.82
2017-11-16T11:29:17.204Z,101700.58
2017-11-16T11:31:44.722Z,101699.05
2017-11-16T11:34:12.293Z,101702.10
2017-11-16T11:36:39.811Z,101689.19
2017-11-16T11:39:07.336Z,101692.02
2017-11-16T11:41:34.991Z,101690.77
2017-11-16T11:44:02.505Z,101681.77
2017-11-16T11:46:30.030Z,101677.87
2017-11-16T11:48:57.622Z,101678.04
2017-11-16T11:51:25.147Z,101675.80
2017-11-16T11:53:52.809Z,101665.33
2017-11-16T11:56:20.506Z,101659.88
2017-11-16T11:58:48.030Z,101655.52
2017-11-16T12:01:15.557Z,101651.97
2017-11-16T12:03:43.101Z,101649.19
2017-11-16T12:06:10.678Z,101644.81
2017-11-16T12:08:38.207Z,101650.27
2017-11-16T12:11:05.726Z,101654.46
2017-11-16T12:13:33.313Z,101656.06
2017-11-16T12:16:00.842Z,101660.81
2017-11-16T12:18:28.365Z,101658.83
2017-11-16T12:20:55.941Z,101658.24
2017-11-16T12:23:23.458Z,101668.02
2017-11-16T12:25:50.989Z,101669.91
2017-11-16T12:28:18.753Z,101657.48
2017-11-16T12:30:46.450Z,101662.08
2017-11-16T12:33:13.995Z,101667.25
2017-11-16T12:35:41.882Z,101664.97
2017-11-16T12:38:09.424Z,101667.34
2017-11-16T12:40:36.958Z,101669.34
2017-11-16T12:43:04.642Z,101663.31
2017-11-16T12:45:32.178Z,101663.14
2017-11-16T12:47:59.728Z,101670.86
2017-11-16T12:50:27.430Z,101667.04
2017-11-16T12:52:54.995Z,101666.26
2017-11-16T12:55:22.575Z,101661.83
2017-11-16T12:57:50.158Z,101654.67
2017-11-16T13:00:17.683Z,101651.73
2017-11-16T13:02:45.212Z,101645.73
2017-11-16T13:05:13.108Z,101639.05
2017-11-16T13:07:40.627Z,101630.19
2017-11-16T13:10:08.151Z,101628.00
2017-11-16T13:12:35.716Z,101623.69
2017-11-16T13:15:03.297Z,101623.89
2017-11-16T13:17:30.810Z,101618.36
2017-11-16T13:19:58.336Z,101619.52
2017-11-16T13:22:25.910Z,101619.94
2017-11-16T13:24:53.425Z,101612.95
2017-11-16T13:27:20.950Z,101612.72
2017-11-16T13:29:48.906Z,101614.44
2017-11-16T13:32:16.431Z,101616.89
2017-11-16T13:34:43.965Z,101611.06
2017-11-16T13:37:11.550Z,101609.12
2017-11-16T13:39:39.071Z,101606.47
2017-11-16T13:42:06.587Z,101603.92
2017-11-16T13:44:34.175Z,101597.64
2017-11-16T13:47:01.693Z,101596.78
2017-11-16T13:49:29.248Z,101595.55
2017-11-16T13:51:56.828Z,101605.84
2017-11-16T13:54:24.359Z,101602.93
2017-11-16T13:56:51.985Z,101595.85
2017-11-16T13:59:19.582Z,101603.06
2017-11-16T14:01:47.114Z,101600.31
2017-11-16T14:04:14.647Z,101597.27
2017-11-16T14:06:42.211Z,101597.05
2017-11-16T14:09:09.734Z,101599.66
2017-11-16T14:11:37.599Z,101597.63
2017-11-16T14:14:06.038Z,101597.27
2017-11-16T14:16:33.569Z,101596.45
2017-11-16T14:19:01.132Z,101588.91
2017-11-16T14:21:28.663Z,101589.70
2017-11-16T14:23:56.229Z,101591.66
2017-11-16T14:26:23.866Z,101591.16
2017-11-16T14:28:51.402Z,101600.09
2017-11-16T14:31:19.357Z,101590.39
2017-11-16T14:33:46.899Z,101588.61
2017-11-16T14:36:14.433Z,101583.38
2017-11-16T14:38:42.407Z,101586.82
2017-11-16T14:41:09.943Z,101580.23
2017-11-16T14:43:37.469Z,101581.23
2017-11-16T14:46:05.579Z,101575.83
2017-11-16T14:48:33.107Z,101579.64
2017-11-16T14:51:00.641Z,101582.72
2017-11-16T14:53:28.319Z,101584.42
2017-11-16T14:55:55.841Z,101585.95
2017-11-16T14:58:23.449Z,101589.72
2017-11-16T15:00:51.059Z,101592.41
2017-11-16T15:03:18.577Z,101590.76
2017-11-16T15:05:46.096Z,101593.73
2017-11-16T15:08:13.665Z,101596.22
2017-11-16T15:10:41.185Z,101591.65
2017-11-16T15:13:08.705Z,101589.00
2017-11-16T15:15:36.691Z,101586.45
2017-11-16T15:18:04.214Z,101581.06
2017-11-16T15:20:31.728Z,101587.58
2017-11-16T15:22:59.440Z,101581.16
2017-11-16T15:25:26.974Z,101588.80
2017-11-16T15:27:54.493Z,101597.66
2017-11-16T15:30:22.038Z,101592.55
2017-11-16T15:32:50.008Z,101591.52
2017-11-16T15:35:17.538Z,101594.78
2017-11-16T15:37:45.068Z,101594.69
2017-11-16T15:40:12.718Z,101589.23
2017-11-16T15:42:40.234Z,101592.53
2017-11-16T15:45:07.766Z,101590.82
2017-11-16T15:47:35.767Z,101595.84
2017-11-16T15:50:03.316Z,101592.57
2017-11-16T15:52:30.844Z,101594.59
2017-11-16T15:54:58.427Z,101590.69
2017-11-16T15:57:25.950Z,101589.27
2017-11-16T15:59:53.461Z,101578.29
2017-11-16T16:02:21.034Z,101573.95
2017-11-16T16:04:48.572Z,101569.45
2017-11-16T16:07:16.108Z,101576.80
2017-11-16T16:09:43.706Z,101578.48
2017-11-16T16:12:11.263Z,101591.52
2017-11-16T16:14:38.790Z,101600.34
2017-11-16T16:17:06.396Z,101606.77
2017-11-16T16:19:33.923Z,101609.18
2017-11-16T16:22:01.455Z,101605.84
2017-11-16T16:24:29.242Z,101602.70
2017-11-16T16:26:56.794Z,101602.27
2017-11-16T16:29:24.345Z,101601.39
2017-11-16T16:31:51.915Z,101611.77
2017-11-16T16:34:19.456Z,101608.65
2017-11-16T16:36:46.979Z,101602.56
2017-11-16T16:39:14.694Z,101601.89
2017-11-16T16:41:42.224Z,101608.90
2017-11-16T16:44:09.757Z,101609.01
2017-11-16T16:46:37.307Z,101601.75
2017-11-16T16:49:04.851Z,101607.80
2017-11-16T16:51:32.411Z,101614.13
2017-11-16T16:53:59.940Z,101616.42
2017-11-16T16:56:27.539Z,101620.39
2017-11-16T16:58:55.129Z,101614.55
2017-11-16T17:01:22.667Z,101604.55
2017-11-16T17:03:50.414Z,101609.05
2017-11-16T17:06:17.934Z,101617.14
2017-11-16T17:08:45.455Z,101614.48
2017-11-16T17:11:13.238Z,101613.20
2017-11-16T17:13:40.762Z,101609.77
2017-11-16T17:16:08.286Z,101606.69
2017-11-16T17:18:35.836Z,101611.83
2017-11-16T17:21:03.439Z,101613.19
2017-11-16T17:23:30.974Z,101614.61
2017-11-16T17:25:58.554Z,101612.15
2017-11-16T17:28:26.159Z,101612.64
2017-11-16T17:30:53.714Z,101610.83
2017-11-16T17:33:21.248Z,101601.92
2017-11-16T17:35:48.798Z,101604.52
2017-11-16T17:38:16.327Z,101606.27
2017-11-16T17:40:44.009Z,101606.27
2017-11-16T17:43:11.535Z,101606.37
2017-11-16T17:45:39.085Z,101607.76
2017-11-16T17:48:06.688Z,101613.78
2017-11-16T17:50:34.236Z,101607.76
2017-11-16T17:55:36.505Z,101605.70
2017-11-16T17:58:04.059Z,101605.18
2017-11-16T18:00:31.597Z,101600.22
2017-11-16T18:02:59.182Z,101604.05
2017-11-16T18:05:26.715Z,101614.77
2017-11-16T18:07:54.242Z,101613.19
2017-11-16T18:10:21.839Z,101610.14
2017-11-16T18:12:49.391Z,101602.27
2017-11-16T18:15:16.941Z,101601.45
2017-11-16T18:17:44.484Z,101607.73
2017-11-16T18:20:12.163Z,101616.83
2017-11-16T18:22:39.734Z,101621.36
2017-11-16T18:25:07.267Z,101616.92
2017-11-16T18:27:34.877Z,101607.03
2017-11-16T18:30:02.406Z,101612.23
2017-11-16T18:32:29.950Z,101613.42
2017-11-16T18:34:57.635Z,101619.41
2017-11-16T18:37:25.169Z,101628.67
2017-11-16T18:39:52.695Z,101625.56
2017-11-16T18:42:20.282Z,101630.62
2017-11-16T18:44:47.833Z,101628.73
2017-11-16T18:47:15.471Z,101630.45
2017-11-16T18:49:43.033Z,101637.23
2017-11-16T18:52:10.549Z,101635.02
2017-11-16T18:54:38.144Z,101638.56
2017-11-16T18:57:05.681Z,101633.14
2017-11-16T18:59:33.298Z,101633.33
2017-11-16T19:02:00.874Z,101631.61
2017-11-16T19:04:28.389Z,101640.17
2017-11-16T19:06:55.919Z,101637.53
2017-11-16T19:09:23.907Z,101644.31
2017-11-16T19:11:51.434Z,101641.63
2017-11-16T19:14:18.970Z,101641.86
2017-11-16T19:16:47.022Z,101648.58
2017-11-16T19:19:14.555Z,101649.88
2017-11-16T19:21:42.077Z,101648.84
2017-11-16T19:24:09.725Z,101655.62
2017-11-16T19:26:37.263Z,101652.69
2017-11-16T19:29:04.794Z,101658.61
2017-11-16T19:31:32.352Z,101650.78
2017-11-16T19:33:59.925Z,101660.09
2017-11-16T19:36:27.454Z,101661.38
2017-11-16T19:38:54.979Z,101665.39
2017-11-16T19:41:22.526Z,101667.94
2017-11-16T19:43:50.055Z,101671.59
2017-11-16T19:46:17.917Z,101660.06
2017-11-16T19:48:45.466Z,101662.08
2017-11-16T19:51:12.986Z,101663.51
2017-11-16T19:53:40.544Z,101660.99
2017-11-16T19:56:08.081Z,101656.13
2017-11-16T19:58:35.658Z,101662.51
2017-11-16T20:01:03.198Z,101663.23
2017-11-16T20:03:30.791Z,101656.61
2017-11-16T20:05:58.328Z,101665.98
2017-11-16T20:08:25.849Z,101662.35
2017-11-16T20:10:53.395Z,101654.83
2017-11-16T20:13:20.925Z,101663.23
2017-11-16T20:15:48.503Z,101663.04
2017-11-16T20:18:16.030Z,101668.09
2017-11-16T20:20:43.562Z,101662.62
2017-11-16T20:23:11.229Z,101666.84
2017-11-16T20:25:38.756Z,101664.31
2017-11-16T20:28:06.288Z,101670.35
2017-11-16T20:30:33.837Z,101672.45
2017-11-16T20:33:01.361Z,101679.70
2017-11-16T20:35:29.261Z,101668.60
2017-11-16T20:37:56.797Z,101674.59
2017-11-16T20:40:26.260Z,101671.25
2017-11-16T20:46:10.442Z,101675.12
2017-11-16T20:51:59.852Z,101679.62
2017-11-16T20:54:29.922Z,101678.91
2017-11-16T20:56:57.458Z,101682.05
2017-11-16T20:59:25.453Z,101680.89
2017-11-16T21:01:52.988Z,101680.89
2017-11-16T21:04:20.517Z,101678.80
2017-11-16T21:06:48.069Z,101683.49
2017-11-16T21:09:15.726Z,101684.79
2017-11-16T21:11:43.262Z,101687.70
2017-11-16T21:14:10.800Z,101689.72
2017-11-16T21:16:38.473Z,101688.73
2017-11-16T21:19:06.017Z,101684.81
2017-11-16T21:21:33.558Z,101686.98
2017-11-16T21:24:01.512Z,101724.83
2017-11-16T21:26:29.033Z,101728.94
2017-11-16T21:28:56.557Z,101737.03
2017-11-16T21:31:24.524Z,101733.48
2017-11-16T21:33:52.062Z,101731.36
2017-11-16T21:36:19.615Z,101740.06
2017-11-16T21:38:47.206Z,101737.10
2017-11-16T21:41:15.753Z,101733.36
2017-11-16T21:43:43.310Z,101730.02
2017-11-16T21:46:10.889Z,101732.20
2017-11-16T21:48:38.432Z,101729.86
2017-11-16T21:51:05.960Z,101738.95
2017-11-16T21:53:33.513Z,101744.74
2017-11-16T21:56:01.029Z,101747.52
2017-11-16T21:58:28.958Z,101744.22
2017-11-16T22:00:56.477Z,101750.83
2017-11-16T22:03:24.002Z,101753.61
2017-11-16T22:05:51.599Z,101757.13
2017-11-16T22:08:19.126Z,101758.10
2017-11-16T22:10:46.646Z,101763.22
2017-11-16T22:13:14.185Z,101760.22
2017-11-16T22:15:41.718Z,101764.23
2017-11-16T22:18:09.266Z,101765.86
2017-11-16T22:20:36.795Z,101763.11
2017-11-16T22:23:04.353Z,101768.23
2017-11-16T22:25:31.895Z,101774.22
2017-11-16T22:28:00.331Z,101773.28
2017-11-16T22:30:27.858Z,101778.12
2017-11-16T22:32:55.370Z,101776.83
2017-11-16T22:35:22.961Z,101776.25
2017-11-16T22:37:50.481Z,101777.54
2017-11-16T22:40:17.998Z,101783.25
2017-11-16T22:42:45.558Z,101778.05
2017-11-16T22:45:13.084Z,101786.55
2017-11-16T22:47:40.728Z,101788.21
2017-11-16T22:50:08.247Z,101789.30
2017-11-16T22:52:35.803Z,101794.78
2017-11-16T22:55:03.354Z,101801.30
2017-11-16T22:57:30.873Z,101803.89
2017-11-16T22:59:58.583Z,101805.66
2017-11-16T23:02:26.102Z,101801.44
2017-11-16T23:04:53.625Z,101803.69
2017-11-16T23:07:21.227Z,101799.22
2017-11-16T23:09:48.765Z,101800.81
2017-11-16T23:12:16.290Z,101807.68
2017-11-16T23:14:43.909Z,101802.81
2017-11-16T23:17:11.451Z,101809.09
2017-11-16T23:19:39.486Z,101815.15
2017-11-16T23:22:07.020Z,101810.79
2017-11-16T23:24:34.546Z,101816.20
2017-11-16T23:27:02.487Z,101819.14
2017-11-16T23:29:30.005Z,101818.61
2017-11-16T23:31:57.521Z,101820.13
2017-11-16T23:34:25.170Z,101820.23
2017-11-16T23:36:52.708Z,101822.46
2017-11-16T23:39:20.242Z,101828.41
2017-11-16T23:41:47.833Z,101823.61
2017-11-16T23:44:15.360Z,101825.89
2017-11-16T23:46:42.888Z,101824.80
2017-11-16T23:49:10.439Z,101825.94
2017-11-16T23:51:37.962Z,101818.95
2017-11-16T23:54:05.635Z,101826.50
2017-11-16T23:56:33.161Z,101837.23
2017-11-16T23:59:00.692Z,101840.58
